createdAt,value
2023-10-09T00:01:55.724Z,32.46
2023-10-09T00:04:25.790Z,32.48
2023-10-09T00:06:56.504Z,32.51
2023-10-09T00:09:26.519Z,32.53
2023-10-09T00:11:59.862Z,32.57
2023-10-09T00:14:35.953Z,32.63
2023-10-09T00:17:15.021Z,32.52
2023-10-09T00:19:45.887Z,32.22
2023-10-09T00:22:23.374Z,32.15
2023-10-09T00:25:15.981Z,32.17
2023-10-09T00:27:48.117Z,32.30
2023-10-09T00:30:31.993Z,32.19
2023-10-09T00:33:08.145Z,32.41
2023-10-09T00:35:56.421Z,32.37
2023-10-09T00:38:35.764Z,32.29
2023-10-09T00:41:11.980Z,32.29
2023-10-09T00:43:45.754Z,32.28
2023-10-09T00:46:26.072Z,32.25
2023-10-09T00:49:05.188Z,32.35
2023-10-09T00:51:38.634Z,32.33
2023-10-09T00:54:17.220Z,32.35
2023-10-09T00:56:59.301Z,32.44
2023-10-09T00:59:30.595Z,32.52
2023-10-09T01:02:06.564Z,32.64
2023-10-09T01:04:39.412Z,32.70
2023-10-09T01:07:23.473Z,32.89
2023-10-09T01:09:56.673Z,32.97
2023-10-09T01:12:31.081Z,33.09
2023-10-09T01:15:03.191Z,33.20
2023-10-09T01:17:47.417Z,33.24
2023-10-09T01:20:34.375Z,33.22
2023-10-09T01:23:05.198Z,33.16
2023-10-09T01:25:45.353Z,33.19
2023-10-09T01:28:17.819Z,33.21
2023-10-09T01:30:49.673Z,33.31
2023-10-09T01:33:29.289Z,33.31
2023-10-09T01:36:03.684Z,33.41
2023-10-09T01:38:42.737Z,33.50
2023-10-09T01:41:22.059Z,33.60
2023-10-09T01:43:53.768Z,33.70
2023-10-09T01:46:25.427Z,33.73
2023-10-09T01:48:57.029Z,33.80
2023-10-09T01:51:35.518Z,33.90
2023-10-09T01:54:06.551Z,33.97
2023-10-09T01:56:41.813Z,34.01
2023-10-09T01:59:13.478Z,34.07
2023-10-09T02:01:49.991Z,34.21
2023-10-09T02:04:22.603Z,34.23
2023-10-09T02:06:54.869Z,34.24
2023-10-09T02:09:32.998Z,34.33
2023-10-09T02:12:04.867Z,34.36
2023-10-09T02:14:40.098Z,34.22
2023-10-09T02:17:12.462Z,34.19
2023-10-09T02:19:44.908Z,34.16
2023-10-09T02:22:16.137Z,34.12
2023-10-09T02:24:50.587Z,34.14
2023-10-09T02:27:58.734Z,34.08
2023-10-09T02:30:29.701Z,34.00
2023-10-09T02:33:11.527Z,34.07
2023-10-09T02:35:44.794Z,33.99
2023-10-09T02:38:19.574Z,33.99
2023-10-09T02:41:05.994Z,33.99
2023-10-09T02:43:49.995Z,33.92
2023-10-09T02:46:35.186Z,33.96
2023-10-09T02:49:06.359Z,33.96
2023-10-09T02:51:44.097Z,33.99
2023-10-09T02:54:21.038Z,33.99
2023-10-09T02:57:00.371Z,34.04
2023-10-09T02:59:32.556Z,34.07
2023-10-09T03:02:03.569Z,33.99
2023-10-09T03:04:34.990Z,33.98
2023-10-09T03:07:06.420Z,33.94
2023-10-09T03:09:37.872Z,33.96
2023-10-09T03:12:12.356Z,33.92
2023-10-09T03:14:44.900Z,33.91
2023-10-09T03:17:15.903Z,33.91
2023-10-09T03:19:48.224Z,33.88
2023-10-09T03:22:19.326Z,33.89
2023-10-09T03:24:51.834Z,33.89
2023-10-09T03:27:25.452Z,33.94
2023-10-09T03:29:56.697Z,33.94
2023-10-09T03:32:27.582Z,33.92
2023-10-09T03:35:01.508Z,33.96
2023-10-09T03:37:36.858Z,33.97
2023-10-09T03:40:17.853Z,34.08
2023-10-09T03:42:49.805Z,34.08
2023-10-09T03:45:27.495Z,34.11
2023-10-09T03:48:18.106Z,34.07
2023-10-09T03:50:51.102Z,34.08
2023-10-09T03:53:21.941Z,34.07
2023-10-09T03:55:52.954Z,34.13
2023-10-09T03:58:24.405Z,34.15
2023-10-09T04:00:57.257Z,34.29
2023-10-09T04:03:29.801Z,34.39
2023-10-09T04:06:02.699Z,34.38
2023-10-09T04:08:35.722Z,34.40
2023-10-09T04:11:18.225Z,34.53
2023-10-09T04:13:49.504Z,34.57
2023-10-09T04:16:37.109Z,34.61
2023-10-09T04:19:13.407Z,34.64
2023-10-09T04:21:44.609Z,34.76
2023-10-09T04:24:15.890Z,34.81
2023-10-09T04:26:47.495Z,34.86
2023-10-09T04:29:40.999Z,34.91
2023-10-09T04:32:19.496Z,35.00
2023-10-09T04:34:51.111Z,34.94
2023-10-09T04:37:40.253Z,34.91
2023-10-09T04:40:15.784Z,34.83
2023-10-09T04:43:00.246Z,34.85
2023-10-09T04:45:46.191Z,34.85
2023-10-09T04:48:34.841Z,34.91
2023-10-09T04:51:36.377Z,34.85
2023-10-09T04:54:17.011Z,34.83
2023-10-09T04:56:57.099Z,34.95
2023-10-09T04:59:28.285Z,35.02
2023-10-09T05:02:00.547Z,35.03
2023-10-09T05:04:40.714Z,34.98
2023-10-09T05:07:38.937Z,34.88
2023-10-09T05:10:22.205Z,34.85
2023-10-09T05:13:00.342Z,34.83
2023-10-09T05:15:32.006Z,34.78
2023-10-09T05:18:11.492Z,34.76
2023-10-09T05:21:05.070Z,34.70
2023-10-09T05:23:46.626Z,34.71
2023-10-09T05:26:36.530Z,34.58
2023-10-09T05:29:27.420Z,34.57
2023-10-09T05:32:08.058Z,34.49
2023-10-09T05:34:58.651Z,34.43
2023-10-09T05:37:35.723Z,34.23
2023-10-09T05:40:37.344Z,34.17
2023-10-09T05:43:08.519Z,34.01
2023-10-09T05:45:57.268Z,33.76
2023-10-09T05:48:28.182Z,33.53
2023-10-09T05:51:11.627Z,33.39
2023-10-09T05:53:48.531Z,33.20
2023-10-09T05:56:46.890Z,33.15
2023-10-09T05:59:35.814Z,33.03
2023-10-09T06:02:24.515Z,32.98
2023-10-09T06:05:00.028Z,32.90
2023-10-09T06:07:50.789Z,32.87
2023-10-09T06:10:39.696Z,32.86
2023-10-09T06:13:30.933Z,32.77
2023-10-09T06:16:30.929Z,32.81
2023-10-09T06:19:10.658Z,32.77
2023-10-09T06:21:44.686Z,32.72
2023-10-09T06:24:15.887Z,32.73
2023-10-09T06:27:16.093Z,32.74
2023-10-09T06:29:46.974Z,32.69
2023-10-09T06:32:21.009Z,32.64
2023-10-09T06:34:59.327Z,32.64
2023-10-09T06:37:32.963Z,32.64
2023-10-09T06:40:32.672Z,32.65
2023-10-09T06:43:09.498Z,32.65
2023-10-09T06:45:46.879Z,32.58
2023-10-09T06:48:36.201Z,32.62
2023-10-09T06:51:29.551Z,32.64
2023-10-09T06:54:01.182Z,32.67
2023-10-09T06:56:32.869Z,32.63
2023-10-09T06:59:17.255Z,32.65
2023-10-09T07:02:06.508Z,32.61
2023-10-09T07:04:40.786Z,32.65
2023-10-09T07:07:17.122Z,32.67
2023-10-09T07:10:08.444Z,32.67
2023-10-09T07:12:44.884Z,32.72
2023-10-09T07:15:48.000Z,32.78
2023-10-09T07:18:25.371Z,32.79
2023-10-09T07:21:03.801Z,32.78
2023-10-09T07:23:34.949Z,32.77
2023-10-09T07:26:29.662Z,32.75
2023-10-09T07:29:55.549Z,32.80
2023-10-09T07:32:45.799Z,32.76
2023-10-09T07:35:36.084Z,32.72
2023-10-09T07:38:11.017Z,32.75
2023-10-09T07:41:02.491Z,32.73
2023-10-09T07:43:41.477Z,32.75
2023-10-09T07:46:34.559Z,32.73
2023-10-09T07:49:16.459Z,32.73
2023-10-09T07:51:49.214Z,32.79
2023-10-09T07:54:34.160Z,32.81
2023-10-09T07:57:20.100Z,32.83
2023-10-09T08:00:26.128Z,32.84
2023-10-09T08:03:02.519Z,32.89
2023-10-09T08:05:35.706Z,32.88
2023-10-09T08:08:36.132Z,32.91
2023-10-09T08:11:30.244Z,32.91
2023-10-09T08:14:04.434Z,32.92
2023-10-09T08:16:43.141Z,32.92
2023-10-09T08:19:43.446Z,32.91
2023-10-09T08:22:40.360Z,32.94
2023-10-09T08:25:28.529Z,32.96
2023-10-09T08:28:22.095Z,32.96
2023-10-09T08:30:57.164Z,32.95
2023-10-09T08:36:07.106Z,32.88
2023-10-09T08:38:38.167Z,32.81
2023-10-09T08:41:22.697Z,32.80
2023-10-09T08:43:55.444Z,32.87
2023-10-09T08:46:31.064Z,32.86
2023-10-09T08:49:02.679Z,32.83
2023-10-09T08:51:37.533Z,32.86
2023-10-09T08:54:16.921Z,32.84
2023-10-09T08:56:54.025Z,32.87
2023-10-09T08:59:24.857Z,32.87
2023-10-09T09:01:56.362Z,32.83
2023-10-09T09:04:43.776Z,32.82
2023-10-09T09:07:41.438Z,32.88
2023-10-09T09:10:25.459Z,32.85
2023-10-09T09:13:02.968Z,32.83
2023-10-09T09:15:33.931Z,32.82
2023-10-09T09:18:13.960Z,32.72
2023-10-09T09:20:47.731Z,32.74
2023-10-09T09:23:26.004Z,32.76
2023-10-09T09:26:06.108Z,32.70
2023-10-09T09:28:41.313Z,32.76
2023-10-09T09:31:24.480Z,32.75
2023-10-09T09:34:05.616Z,32.71
2023-10-09T09:36:40.227Z,32.70
2023-10-09T09:39:21.410Z,32.70
2023-10-09T09:41:54.393Z,32.78
2023-10-09T09:44:32.924Z,32.74
2023-10-09T09:47:04.142Z,32.77
2023-10-09T09:49:36.130Z,32.75
2023-10-09T09:52:12.216Z,32.76
2023-10-09T09:54:43.196Z,32.76
2023-10-09T09:57:24.111Z,32.71
2023-10-09T09:59:57.578Z,32.72
2023-10-09T10:02:37.897Z,32.74
2023-10-09T10:05:13.643Z,32.67
2023-10-09T10:07:51.733Z,32.67
2023-10-09T10:10:50.114Z,32.70
2023-10-09T10:13:41.163Z,32.68
2023-10-09T10:16:22.224Z,32.65
2023-10-09T10:19:09.705Z,32.66
2023-10-09T10:21:40.659Z,32.73
2023-10-09T10:24:33.443Z,32.76
2023-10-09T10:27:42.586Z,32.69
2023-10-09T10:30:15.756Z,32.74
2023-10-09T10:32:57.165Z,32.70
2023-10-09T10:35:46.884Z,32.62
2023-10-09T10:38:44.365Z,32.67
2023-10-09T10:41:24.531Z,32.66
2023-10-09T10:43:55.486Z,32.67
2023-10-09T10:46:31.773Z,32.64
2023-10-09T10:49:27.934Z,32.51
2023-10-09T10:52:24.624Z,32.44
2023-10-09T10:55:19.941Z,32.50
2023-10-09T10:57:58.163Z,32.46
2023-10-09T11:00:48.180Z,32.45
2023-10-09T11:03:32.226Z,32.43
2023-10-09T11:06:16.982Z,32.41
2023-10-09T11:09:01.262Z,32.48
2023-10-09T11:11:34.851Z,32.48
2023-10-09T11:14:18.062Z,32.45
2023-10-09T11:16:52.030Z,32.49
2023-10-09T11:19:30.386Z,32.42
2023-10-09T11:22:09.645Z,32.37
2023-10-09T11:24:40.729Z,32.36
2023-10-09T11:27:20.884Z,32.35
2023-10-09T11:29:52.326Z,32.34
2023-10-09T11:32:27.415Z,32.31
2023-10-09T11:35:30.214Z,32.32
2023-10-09T11:38:01.801Z,32.31
2023-10-09T11:40:54.068Z,32.29
2023-10-09T11:43:47.169Z,32.28
2023-10-09T11:46:38.675Z,32.30
2023-10-09T11:49:24.071Z,32.22
2023-10-09T11:52:27.335Z,32.28
2023-10-09T11:54:58.914Z,32.25
2023-10-09T11:57:35.508Z,32.17
2023-10-09T12:00:30.872Z,32.17
2023-10-09T12:03:07.954Z,32.22
2023-10-09T12:05:39.797Z,32.24
2023-10-09T12:08:10.889Z,32.22
2023-10-09T12:10:42.457Z,32.21
2023-10-09T12:13:17.781Z,32.20
2023-10-09T12:15:48.853Z,32.21
2023-10-09T12:18:21.064Z,32.21
2023-10-09T12:20:57.392Z,32.19
2023-10-09T12:23:30.063Z,32.23
2023-10-09T12:26:01.212Z,32.20
2023-10-09T12:28:35.110Z,32.20
2023-10-09T12:31:06.084Z,32.19
2023-10-09T12:33:41.871Z,32.15
2023-10-09T12:36:22.094Z,32.19
2023-10-09T12:38:56.256Z,32.16
2023-10-09T12:41:28.934Z,32.10
2023-10-09T12:44:04.078Z,32.13
2023-10-09T12:46:39.814Z,32.12
2023-10-09T12:49:10.870Z,32.09
2023-10-09T12:51:42.517Z,32.09
2023-10-09T12:54:16.957Z,32.09
2023-10-09T12:56:53.223Z,32.02
2023-10-09T12:59:26.323Z,32.04
2023-10-09T13:02:00.303Z,31.95
2023-10-09T13:04:34.157Z,32.07
2023-10-09T13:07:06.564Z,32.00
2023-10-09T13:09:38.032Z,31.99
2023-10-09T13:12:20.230Z,31.95
2023-10-09T13:14:54.343Z,31.99
2023-10-09T13:17:29.330Z,32.01
2023-10-09T13:20:00.570Z,32.00
2023-10-09T13:22:32.614Z,32.00
2023-10-09T13:25:06.533Z,31.99
2023-10-09T13:27:37.891Z,31.97
2023-10-09T13:30:11.292Z,31.92
2023-10-09T13:32:42.141Z,31.93
2023-10-09T13:35:17.034Z,31.90
2023-10-09T13:37:56.141Z,31.96
2023-10-09T13:40:31.804Z,31.93
2023-10-09T13:43:02.887Z,32.00
2023-10-09T13:45:40.734Z,31.94
2023-10-09T13:48:13.804Z,31.96
2023-10-09T13:50:44.974Z,31.91
2023-10-09T13:53:20.141Z,31.86
2023-10-09T13:55:53.630Z,31.89
2023-10-09T13:58:24.525Z,31.87
2023-10-09T14:00:55.763Z,31.90
2023-10-09T14:03:31.284Z,31.86
2023-10-09T14:06:12.374Z,31.84
2023-10-09T14:08:45.072Z,31.83
2023-10-09T14:11:15.725Z,31.81
2023-10-09T14:13:48.374Z,31.83
2023-10-09T14:16:29.618Z,31.84
2023-10-09T14:19:01.461Z,31.79
2023-10-09T14:21:32.381Z,31.81
2023-10-09T14:24:02.952Z,31.81
2023-10-09T14:26:36.449Z,31.77
2023-10-09T14:29:08.844Z,31.76
2023-10-09T14:31:41.064Z,31.73
2023-10-09T14:34:11.767Z,31.74
2023-10-09T14:36:45.990Z,31.74
2023-10-09T14:39:21.005Z,31.74
2023-10-09T14:41:53.070Z,31.74
2023-10-09T14:44:25.733Z,31.71
2023-10-09T14:46:57.736Z,31.71
2023-10-09T14:49:28.648Z,31.72
2023-10-09T14:52:01.249Z,31.71
2023-10-09T14:54:31.928Z,31.70
2023-10-09T14:57:02.861Z,31.67
2023-10-09T14:59:33.399Z,31.67
2023-10-09T15:02:04.267Z,31.63
2023-10-09T15:04:38.007Z,31.65
2023-10-09T15:07:12.795Z,31.66
2023-10-09T15:09:46.759Z,31.61
2023-10-09T15:12:17.722Z,31.64
2023-10-09T15:14:48.234Z,31.61
2023-10-09T15:17:21.229Z,31.63
2023-10-09T15:19:57.162Z,31.62
2023-10-09T15:22:30.727Z,31.61
2023-10-09T15:25:04.564Z,31.60
2023-10-09T15:27:35.234Z,31.59
2023-10-09T15:30:08.992Z,31.58
2023-10-09T15:32:40.300Z,31.59
2023-10-09T15:35:17.070Z,31.58
2023-10-09T15:37:54.421Z,31.55
2023-10-09T15:40:26.760Z,31.52
2023-10-09T15:42:58.710Z,31.55
2023-10-09T15:45:33.526Z,31.53
2023-10-09T15:48:06.885Z,31.54
2023-10-09T15:50:37.602Z,31.57
2023-10-09T15:53:12.394Z,31.56
2023-10-09T15:55:43.194Z,31.55
2023-10-09T15:58:14.260Z,31.54
2023-10-09T16:00:47.649Z,31.51
2023-10-09T16:03:19.154Z,31.53
2023-10-09T16:05:49.805Z,31.48
2023-10-09T16:08:21.443Z,31.48
2023-10-09T16:10:52.160Z,31.46
2023-10-09T16:13:23.493Z,31.43
2023-10-09T16:15:53.361Z,31.44
2023-10-09T16:18:23.448Z,31.40
2023-10-09T16:20:54.189Z,31.36
2023-10-09T16:23:24.545Z,31.40
2023-10-09T16:25:54.636Z,31.40
2023-10-09T16:28:24.648Z,31.42
2023-10-09T16:30:56.045Z,31.38
2023-10-09T16:33:28.017Z,31.37
2023-10-09T16:36:01.494Z,31.34
2023-10-09T16:38:33.357Z,31.31
2023-10-09T16:41:12.502Z,31.32
2023-10-09T16:43:47.382Z,31.33
2023-10-09T16:46:18.975Z,31.28
2023-10-09T16:48:53.719Z,31.21
2023-10-09T16:51:24.050Z,31.19
2023-10-09T16:53:56.891Z,31.14
2023-10-09T16:56:34.838Z,31.18
2023-10-09T16:59:05.986Z,31.18
2023-10-09T17:01:36.020Z,31.16
2023-10-09T17:04:13.687Z,31.17
2023-10-09T17:06:45.902Z,31.18
2023-10-09T17:09:16.905Z,31.16
2023-10-09T17:11:46.870Z,31.20
2023-10-09T17:14:18.963Z,31.19
2023-10-09T17:16:49.520Z,31.18
2023-10-09T17:19:19.635Z,31.07
2023-10-09T17:21:51.837Z,31.08
2023-10-09T17:24:22.658Z,30.95
2023-10-09T17:26:57.735Z,30.95
2023-10-09T17:29:29.143Z,30.93
2023-10-09T17:31:59.146Z,30.91
2023-10-09T17:34:29.454Z,30.93
2023-10-09T17:36:59.590Z,30.89
2023-10-09T17:39:29.596Z,30.89
2023-10-09T17:42:00.171Z,30.86
2023-10-09T17:44:33.143Z,30.89
2023-10-09T17:47:03.575Z,30.86
2023-10-09T17:49:33.832Z,30.82
2023-10-09T17:52:03.755Z,30.82
2023-10-09T17:54:36.636Z,30.83
2023-10-09T17:57:06.522Z,30.81
2023-10-09T17:59:37.023Z,30.78
2023-10-09T18:02:07.308Z,30.78
2023-10-09T18:04:37.532Z,30.79
2023-10-09T18:07:07.514Z,30.81
2023-10-09T18:09:37.646Z,30.82
2023-10-09T18:12:07.428Z,30.73
2023-10-09T18:14:37.297Z,30.75
2023-10-09T18:17:08.777Z,30.62
2023-10-09T18:19:41.034Z,30.62
2023-10-09T18:22:14.176Z,30.64
2023-10-09T18:24:44.687Z,30.62
2023-10-09T18:27:18.761Z,30.63
2023-10-09T18:29:50.530Z,30.63
2023-10-09T18:32:21.147Z,30.61
2023-10-09T18:34:51.082Z,30.64
2023-10-09T18:37:21.143Z,30.64
2023-10-09T18:39:51.734Z,30.62
2023-10-09T18:42:21.986Z,30.59
2023-10-09T18:44:51.972Z,30.61
2023-10-09T18:47:22.261Z,30.58
2023-10-09T18:49:52.232Z,30.59
2023-10-09T18:52:23.524Z,30.56
2023-10-09T18:54:54.090Z,30.51
2023-10-09T18:57:26.081Z,30.56
2023-10-09T18:59:56.029Z,30.52
2023-10-09T19:02:28.133Z,30.58
2023-10-09T19:04:58.293Z,30.62
2023-10-09T19:07:29.187Z,30.57
2023-10-09T19:09:59.129Z,30.55
2023-10-09T19:12:28.918Z,30.57
2023-10-09T19:14:59.415Z,30.49
2023-10-09T19:17:29.360Z,30.48
2023-10-09T19:19:59.439Z,30.49
2023-10-09T19:22:29.506Z,30.56
2023-10-09T19:25:00.922Z,30.65
2023-10-09T19:27:32.425Z,30.72
2023-10-09T19:30:06.286Z,30.79
2023-10-09T19:32:36.517Z,30.83
2023-10-09T19:35:06.866Z,30.91
2023-10-09T19:37:36.810Z,30.93
2023-10-09T19:40:10.181Z,30.86
2023-10-09T19:42:41.004Z,30.77
2023-10-09T19:45:12.863Z,30.76
2023-10-09T19:47:42.841Z,30.76
2023-10-09T19:50:16.174Z,30.73
2023-10-09T19:52:50.155Z,30.68
2023-10-09T19:55:23.714Z,30.63
2023-10-09T19:57:56.735Z,30.55
2023-10-09T20:00:26.560Z,30.47
2023-10-09T20:02:56.720Z,30.47
2023-10-09T20:05:29.690Z,30.42
2023-10-09T20:08:01.225Z,30.37
2023-10-09T20:10:32.848Z,30.42
2023-10-09T20:13:05.985Z,30.40
2023-10-09T20:15:36.800Z,30.37
2023-10-09T20:18:11.406Z,30.41
2023-10-09T20:20:47.403Z,30.31
2023-10-09T20:23:20.190Z,30.18
2023-10-09T20:26:01.071Z,30.10
2023-10-09T20:28:30.968Z,30.10
2023-10-09T20:31:03.462Z,30.09
2023-10-09T20:33:38.166Z,29.99
2023-10-09T20:36:18.569Z,29.97
2023-10-09T20:38:51.198Z,29.94
2023-10-09T20:41:29.537Z,29.90
2023-10-09T20:44:07.427Z,29.87
2023-10-09T20:46:38.306Z,29.89
2023-10-09T20:49:09.869Z,29.87
2023-10-09T20:51:54.949Z,29.83
2023-10-09T20:54:29.792Z,29.81
2023-10-09T20:57:05.048Z,29.82
2023-10-09T20:59:37.894Z,29.79
2023-10-09T21:02:08.821Z,29.86
2023-10-09T21:04:38.803Z,29.78
2023-10-09T21:07:14.056Z,29.80
2023-10-09T21:09:50.052Z,29.79
2023-10-09T21:12:24.226Z,29.80
2023-10-09T21:14:54.193Z,29.84
2023-10-09T21:17:24.673Z,29.85
2023-10-09T21:19:54.824Z,29.80
2023-10-09T21:22:24.905Z,29.78
2023-10-09T21:24:57.685Z,29.73
2023-10-09T21:27:27.626Z,29.73
2023-10-09T21:30:00.416Z,29.76
2023-10-09T21:32:42.719Z,29.70
2023-10-09T21:35:19.660Z,29.74
2023-10-09T21:38:03.260Z,29.74
2023-10-09T21:40:35.361Z,29.79
2023-10-09T21:43:19.019Z,29.77
2023-10-09T21:45:51.524Z,29.70
2023-10-09T21:48:21.626Z,29.65
2023-10-09T21:51:05.571Z,29.69
2023-10-09T21:53:36.372Z,29.72
2023-10-09T21:56:16.140Z,29.66
2023-10-09T21:58:50.391Z,29.70
2023-10-09T22:01:32.909Z,29.62
2023-10-09T22:04:02.841Z,29.63
2023-10-09T22:06:35.976Z,29.64
2023-10-09T22:09:09.615Z,29.59
2023-10-09T22:11:39.575Z,29.61
2023-10-09T22:14:09.430Z,29.62
2023-10-09T22:16:42.364Z,29.65
2023-10-09T22:19:16.876Z,29.60
2023-10-09T22:21:49.620Z,29.63
2023-10-09T22:24:20.892Z,29.69
2023-10-09T22:26:53.208Z,29.60
2023-10-09T22:29:29.553Z,29.65
2023-10-09T22:32:01.635Z,29.59
2023-10-09T22:34:44.748Z,29.58
2023-10-09T22:37:21.673Z,29.62
2023-10-09T22:39:54.106Z,29.65
2023-10-09T22:42:28.862Z,29.70
2023-10-09T22:45:07.002Z,29.67
2023-10-09T22:47:46.755Z,29.71
2023-10-09T22:50:24.425Z,29.73
2023-10-09T22:52:57.910Z,29.70
2023-10-09T22:55:37.789Z,29.67
2023-10-09T22:58:15.225Z,29.74
2023-10-09T23:00:56.526Z,29.73
2023-10-09T23:03:30.918Z,29.82
2023-10-09T23:06:17.311Z,29.73
2023-10-09T23:08:58.137Z,29.79
2023-10-09T23:11:33.460Z,29.72
2023-10-09T23:14:43.579Z,29.79
2023-10-09T23:17:20.351Z,29.76
2023-10-09T23:20:01.355Z,29.81
2023-10-09T23:22:40.167Z,29.80
2023-10-09T23:25:33.631Z,29.80
2023-10-09T23:28:31.790Z,29.85
2023-10-09T23:31:02.748Z,29.86
2023-10-09T23:33:34.837Z,29.88
2023-10-09T23:36:07.865Z,29.94
2023-10-09T23:38:57.586Z,29.99
2023-10-09T23:41:28.147Z,30.03
2023-10-09T23:43:58.168Z,30.09
2023-10-09T23:46:32.401Z,30.24
2023-10-09T23:49:02.212Z,30.31
2023-10-09T23:51:32.089Z,30.23
2023-10-09T23:54:12.165Z,30.22
2023-10-09T23:56:49.228Z,30.30
2023-10-09T23:59:41.010Z,30.48
